AirNav   Air Wisconsin pilot careers
 
 1002 users online  

92F Chattanooga Sky Harbor Airport
Chattanooga, Oklahoma, USA

GOING TO CHATTANOOGA?


FAA INFORMATION EFFECTIVE 26 APRIL 2018

Location

FAA Identifier: 92F
Lat/Long: 34-22-07.9000N / 098-40-55.7000W
34-22.131667N / 098-40.928333W
34.3688611 / -98.6821389
(estimated)
Elevation: 1135 ft. / 346 m (estimated)
Variation: 07E (1985)
From city: 3 miles SW of CHATTANOOGA, OK
Time zone: UTC -5 (UTC -6 during Standard Time)
Zip code: 73528

Airport Operations

Airport use: Open to the public
Activation date: 11/1948
Control tower: no
ARTCC: FORT WORTH CENTER
FSS: MC ALESTER FLIGHT SERVICE STATION
NOTAMs facility: MLC (NOTAM-D service available)
Attendance: IREG
Wind indicator: lighted
Segmented circle: yes
Lights: SS-SR
Beacon: white-green (lighted land airport)
Operates sunset to sunrise.

Airport Communications

CTAF: 122.9
WX ASOS at FDR (15 nm W): 132.675 (580-335-7591)
WX ASOS at LAW (18 nm NE): PHONE 580-581-1351

Nearby radio navigation aids

VOR radial/distance  VOR name  Freq  Var
LAWr231/15.4LAWTON VOR/DME109.4009E
SPSr339/23.3WICHITA FALLS VORTAC112.7010E
LTSr116/34.0ALTUS VORTAC109.8005E
HBRr138/35.3HOBART VORTAC111.8010E

 
NDB name  Hdg/Dist  Freq  Var  ID
POST216/19.942508EPFL .--. ..-. .-..
TRAIL200/28.438809EOFZ --- ..-. --..
SCOTLAND340/36.534405ESKB ... -.- -...

Airport Services

Parking: tiedowns
Airframe service: NONE
Powerplant service: NONE
Bottled oxygen: NONE
Bulk oxygen: NONE

Runway Information

Runway 17/35

Dimensions: 3400 x 60 ft. / 1036 x 18 m
Surface: asphalt, in good condition
Weight bearing capacity: 
Single wheel: 7.0
Runway edge lights: medium intensity
RUNWAY 17  RUNWAY 35
Latitude: 34-22.411285N34-21.850610N
Longitude: 098-40.929260W098-40.928472W
Elevation: 1129.0 ft.1122.0 ft.
Gradient: 0.3%0.3%
Traffic pattern: leftleft
Runway heading: 173 magnetic, 180 true353 magnetic, 360 true
Markings: basic, in good conditionbasic, in good condition

Airport Ownership and Management from official FAA records

Ownership: Publicly-owned
Owner: CITY OF CHATTANOOGA
CITY HALL , 302 3RD ST
CHATTANOOGA, OK 73528
Phone 580-597-3390
Manager: MIKE FORTNEY
302 3RD ST, 302 3RD ST
CHATTANOOGA, OK 73528
Phone 580-597-3390

Airport Operational Statistics

Aircraft based on the field: 18
Single engine airplanes: 16
Ultralights: 2
    
Aircraft operations: avg 67/week *
60% local general aviation
40% transient general aviation
* for 12-month period ending 23 May 2017

Additional Remarks

ULTRALIGHTS ON AND IN VICINITY OF AIRPORT.

Instrument Procedures

There are no published instrument procedures at 92F.

Some nearby airports with instrument procedures:

KFDR - Frederick Regional Airport (15 nm W)
KLAW - Lawton-Fort Sill Regional Airport (18 nm NE)
KFSI - Henry Post Army Airfield (Fort Sill) (22 nm NE)
KSPS - Sheppard Air Force Base/Wichita Falls Municipal Airport (25 nm SE)
F14 - Wichita Valley Airport (25 nm S)
 
Loc | Ops | Rwys | IFR | FBO | Links
Com | Nav | Svcs | Stats | Notes

AirNav Hotels Sweepstakes
 
Area around 92F (Chattanooga Sky Harbor Airport)
 
Road maps at: MapQuest Bing Google
 
Aerial photo
WARNING: Photo may not be current or correct
Aerial photo of 92F (Chattanooga Sky Harbor Airport)
Photo by Charles Winters, N68344
Photo taken 26-Sep-2007
taken from 500 feet AGL

Do you have a better or more recent aerial photo of Chattanooga Sky Harbor Airport that you would like to share? If so, please send us your photo.

 
Sectional chart

 
Airport distance calculator
Flying to Chattanooga Sky Harbor Airport? Find the distance to fly.

From to 92F

Sunrise and sunset
Times for 21-May-2018
 Local
(UTC-5)
 Zulu
(UTC)
Morning civil twilight06:0111:01
Sunrise06:2911:29
Sunset20:3301:33
Evening civil twilight21:0102:01

Current date and time
Zulu (UTC)  21-May-2018 12:33:04
Local (UTC-5)  21-May-2018 07:33:04
 
METAR
KFDR 
15nm W 
211153Z AUTO 04008KT 8SM CLR 17/16 A3004 RMK AO2 SLP159 T01670156 10189 20161 51014
KLAW 
17nm NE 
211153Z AUTO 02005KT 5SM BR CLR 16/15 A3006 RMK AO2 SLP173 T01560150 10172 20144 53008
KFSI 
21nm NE 
211156Z AUTO 02006KT 7SM CLR 15/15 A3006 RMK AO2 SLP174 T01510151 10175 20147 53008
KSPS 
25nm S 
211152Z 05005KT 7SM FEW250 17/16 A3005 RMK AO2 SLP167 T01670156 10189 20167 53014
TAF
KLAW 
17nm NE 
211120Z 2112/2212 05004KT 4SM BR BKN008 FM211400 08006KT P6SM SCT025 TEMPO 2114/2116 BKN025 FM211600 13008KT P6SM BKN250
NOTAMs
Click for the latest NOTAMs
NOTAMs are issued by the DoD/FAA and will open in a separate window not controlled by AirNav.

 

 
 

Would you like to see your business listed on this page?

 If your business provides an interesting product or service to pilots, flight crews, aircraft, or users of the Chattanooga Sky Harbor Airport, you should consider listing it here.  To start the listing process, click on the button below
 
Add a business
 

Other Pages about Chattanooga Sky Harbor Airport

Update a link
 
Copyright © AirNav, LLC. All rights reserved. Privacy Policy  Contact